Weather observations for the past three days for
Brigham City Regional Airport
Metric (Imperial)
Date Time (mdt) Wind (kph) Vis. (km) Weather Sky Cond. Temperature (ºC) Relative Humidity Wind Chill (°C) Heat Index (°C) Pressure Precipitation (cm)
Air Dwpt 6 hour altimeter (cm) sea level (mb) 1 hr 3 hr 6 hr
Max. Min.
03 20:35 SE 6 12.87 Fair CLR 20 2 30% 75.74 0.0
03 20:15 S 6 16.09 Fair CLR 20 2 30% 75.74 0.0
03 19:55 SE 6 16.09 Fair CLR 22 0 23% 75.74 0.0
03 19:35 SE 6 16.09 Fair CLR 23 -2 19% 75.77 0.0
03 19:15 SE 6 16.09 Fair CLR 24 -6 13% 24 75.79 0.0
03 18:55 E 2 16.09 Fair CLR 24 -9 10% 24 75.79 0.0
03 18:35 Vrbl 2 16.09 Fair CLR 24 -9 10% 24 75.82 0.0
03 18:15 SW 4 16.09 Fair CLR 25 -8 11% 24 75.82 0.0
03 17:55 S 7 16.09 Fair CLR 24 -6 25 19.3 13% 24 75.84 0.0
03 17:35 Vrbl 6 16.09 Fair CLR 24 -7 12% 24 75.84 0.0
03 17:15 S 7 16.09 Fair CLR 24 -6 13% 24 75.87 0.0
03 16:35 S 11 16.09 Fair CLR 24 -6 13% 24 75.9 0.0
03 16:15 Vrbl 6 16.09 Fair CLR 24 -5 14% 24 75.92 0.0
03 15:55 SW 7 16.09 Fair CLR 24 -5 14% 24 75.95 0.0
03 15:35 Vrbl 7 16.09 Fair CLR 24 -4 15% 24 75.97 0.0
03 15:15 Vrbl 4 16.09 Fair CLR 23 -5 15% 76 0.0
03 14:55 SE 11 16.09 Fair CLR 23 -7 13% 76.02 0.0
03 14:35 Vrbl 11 16.09 Fair CLR 23 -4 16% 76.05 0.0
03 14:15 Vrbl 4 16.09 Fair CLR 23 -4 16% 76.05 0.0
03 13:55 S 11 16.09 Fair CLR 23 -2 19% 76.07 0.0
03 13:35 SW 9 16.09 Fair CLR 24 -3 16% 24 76.1 0.0
03 13:15 Calm 16.09 Fair CLR 23 0 22% 76.12 0.0
03 12:55 Vrbl 4 16.09 Fair CLR 22 0 23% 76.15 0.0
03 12:35 S 7 16.09 Fair CLR 22 0 23% 76.17 0.0
03 12:15 Vrbl 4 16.09 Fair CLR 21 -2 21% 76.17 0.0
03 11:55 Vrbl 2 16.09 Fair CLR 20 -4 20 3.3 20% 76.2 0.0
03 11:35 Calm 16.09 Fair CLR 19 -2 24% 76.23 0.0
03 11:15 Vrbl 4 16.09 Fair CLR 18 -1 28% 76.23 0.0
03 10:35 Vrbl 4 16.09 Fair CLR 17 4 42% 76.25 0.0
03 10:15 NE 6 16.09 Fair CLR 15 3 45% 76.25 0.0
03 09:55 NW 6 16.09 Fair CLR 14 3 48% 76.25 0.0
03 09:35 N 6 16.09 Fair CLR 13 4 55% 76.25 0.0
03 09:15 N 9 16.09 Fair CLR 12 3 54% 76.25 0.0
03 08:55 N 6 16.09 Fair CLR 10 4 67% 76.25 0.0
03 08:35 NW 7 16.09 Fair CLR 8 3 71% 7 76.25 0.0
03 08:15 NW 11 16.09 Fair CLR 7 1 66% 5 76.25 0.0
03 07:55 N 7 16.09 Fair CLR 6 1 71% 5 76.28 0.0
03 07:35 NW 7 16.09 Fair CLR 5 0 70% 4 76.25 0.0
03 07:15 N 2 16.09 Fair CLR 4 2 87% 76.23 0.0
03 06:55 W 2 16.09 Fair CLR 3 2 93% 76.23 0.0
03 06:35 N 7 16.09 Fair CLR 4 1 81% 2 76.23 0.0
03 06:15 NW 6 16.09 Fair CLR 4 1 81% 76.23 0.0
03 05:55 NW 6 16.09 Fair CLR 6 1 9.6 5.1 71% 76.2 0.0
03 05:35 N 4 16.09 Fair CLR 5 1 76% 76.23 0.0
03 05:15 N 6 16.09 Fair CLR 6 2 76% 76.25 0.0
03 04:35 W 6 16.09 Fair CLR 6 4 87% 76.25 0.0
03 04:15 NW 4 16.09 Fair CLR 6 4 87% 76.25 0.0
03 03:55 N 4 16.09 Fair CLR 6 4 87% 76.25 0.0
03 03:35 N 2 16.09 Fair CLR 6 4 87% 76.25 0.0
03 03:15 Calm 16.09 Fair CLR 7 3 76% 76.25 0.0
03 02:55 N 2 16.09 Fair CLR 7 2 71% 76.25 0.0
03 02:35 NW 6 16.09 Fair CLR 8 1 62% 76.25 0.0
03 02:15 W 6 16.09 Fair CLR 7 2 71% 76.25 0.0
03 01:55 NW 6 16.09 Fair CLR 9 2 62% 76.25 0.0
03 01:35 NW 6 16.09 Fair CLR 9 1 58% 76.25 0.0
03 01:15 Vrbl 6 16.09 Fair CLR 9 2 62% 76.25 0.0
03 00:55 E 6 16.09 Fair CLR 8 5 82% 76.25 0.0
03 00:35 Calm 16.09 Fair CLR 9 3 66% 76.25 0.0
03 00:15 N 9 16.09 Fair CLR 9 2 62% 8 76.25 0.0
02 23:55 NW 17 16.09 Fair CLR 9 1 21.8 9.3 58% 7 76.25 0.0
02 23:35 NW 11 16.09 Fair CLR 12 1 47% 76.25 0.0
02 23:15 SE 7 16.09 Fair CLR 12 2 51% 76.25 0.0
02 22:55 E 4 16.09 Fair CLR 13 0 41% 76.25 0.0
02 22:35 SE 9 16.09 Fair CLR 12 2 51% 76.25 0.0
02 22:15 SE 13 16.09 Fair CLR 12 4 58% 76.28 0.0
02 21:55 SE 9 16.09 Fair CLR 13 4 55% 76.28 0.0
02 21:35 SE 9 16.09 Fair CLR 14 4 51% 76.25 0.0
02 21:15 SE 9 16.09 Fair CLR 14 3 48% 76.25 0.0
02 20:55 E 9 16.09 Fair CLR 15 4 48% 76.25 0.0
02 20:35 E 4 16.09 Fair CLR 18 4 40% 76.25 0.0
02 20:15 E 7 16.09 Fair CLR 19 4 37% 76.25 0.0
02 19:55 NE 6 16.09 Fair CLR 20 0 26% 76.25 0.0
02 19:35 NE 4 16.09 Fair CLR 21 -4 18% 76.25 0.0
02 19:15 N 4 16.09 Fair CLR 20 -5 18% 76.25 0.0
02 18:55 Calm 16.09 Fair CLR 21 -6 16% 76.25 0.0
02 18:35 Calm 16.09 Fair CLR 21 -5 17% 76.28 0.0
02 18:15 W 7 16.09 Fair CLR 21 -5 17% 76.28 0.0
02 17:35 S 11 16.09 Fair CLR 22 -3 19% 76.3 0.0
02 17:15 S 11 16.09 Fair CLR 21 -5 17% 76.3 0.0
02 16:55 Vrbl 6 16.09 Fair CLR 22 -5 16% 76.33 0.0
02 16:35 S 9 16.09 Fair CLR 22 -5 16% 76.35 0.0
02 16:15 S 11 16.09 Fair CLR 22 -5 16% 76.38 0.0
02 15:55 Vrbl 9 16.09 Fair CLR 21 -5 17% 76.4 0.0
02 15:35 SW 9 16.09 Fair CLR 21 -4 18% 76.43 0.0
02 15:15 Vrbl 9 16.09 Fair CLR 21 -4 18% 76.45 0.0
02 14:35 Vrbl 2 16.09 Fair CLR 21 -4 18% 76.48 0.0
02 14:15 SW 11 16.09 Fair CLR 20 -4 20% 76.5 0.0
02 13:55 S 15 16.09 Fair CLR 20 -4 20% 76.5 0.0
02 13:35 SW 13 16.09 Fair CLR 20 -2 23% 76.53 0.0
02 13:15 S 13 16.09 Fair CLR 20 -2 23% 76.56 0.0
02 12:35 S 7 16.09 Fair CLR 20 -1 24% 76.58 0.0
02 12:15 E 4 16.09 Fair CLR 19 0 28% 76.61 0.0
02 11:55 N 6 16.09 Fair CLR 19 0 18.9 3.1 28% 76.61 0.0
02 11:35 S 4 16.09 Fair CLR 18 0 30% 76.61 0.0
02 11:15 N 6 16.09 Fair CLR 18 1 32% 76.61 0.0
02 10:55 Vrbl 2 16.09 Fair CLR 17 1 34% 76.63 0.0
02 10:35 E 6 16.09 Fair CLR 16 1 36% 76.63 0.0
02 10:15 Vrbl 2 16.09 Fair CLR 15 1 39% 76.63 0.0
02 09:55 Vrbl 4 16.09 Fair CLR 14 3 48% 76.61 0.0
02 09:35 Calm 16.09 Fair CLR 12 6 67% 76.61 0.0
02 09:15 NE 4 16.09 Light Rain CLR 10 5 71% 76.61 0.0
02 08:55 Vrbl 7 16.09 Fair CLR 10 4 67% 9 76.63 0.0
02 08:35 N 4 16.09 Fair CLR 8 3 71% 76.63 0.0
02 08:15 NW 4 16.09 Fair CLR 7 3 76% 76.63 0.0
02 07:55 Calm 16.09 Fair CLR 6 2 76% 76.63 0.0
02 07:35 W 6 16.09 Fair CLR 5 1 76% 76.61 0.0
02 06:55 N 6 16.09 Fair CLR 3 1 87% 76.61 0.0
02 06:35 NW 6 16.09 Fair CLR 4 1 81% 76.58 0.0
02 06:15 N 7 16.09 Fair CLR 4 2 87% 2 76.56 0.0
02 05:55 NE 4 16.09 Fair CLR 4 2 10.9 3.2 87% 76.56 0.0
02 05:35 NE 4 16.09 Fair CLR 3 2 93% 76.58 0.0
02 05:15 Calm 16.09 Fair CLR 4 2 87% 76.58 0.0
02 04:55 Vrbl 2 16.09 Fair CLR 6 1 71% 76.58 0.0
02 04:35 Vrbl 4 16.09 Fair CLR 5 2 81% 76.58 0.0
02 04:15 NW 6 16.09 Fair CLR 6 2 76% 76.56 0.0
02 03:55 NW 4 16.09 Fair CLR 6 4 87% 76.56 0.0
02 03:35 N 4 16.09 Fair CLR 7 4 81% 76.56 0.0
02 03:15 N 6 16.09 Fair CLR 6 3 81% 76.56 0.0
02 02:55 NE 2 16.09 Fair CLR 6 4 87% 76.56 0.0
02 02:35 NW 2 16.09 Fair CLR 7 3 76% 76.56 0.0
02 02:15 Calm 16.09 Fair CLR 7 2 71% 76.56 0.0
02 01:55 SE 2 16.09 Fair CLR 8 2 66% 76.56 0.0
02 01:35 SE 4 16.09 Fair CLR 8 2 66% 76.56 0.0
02 01:15 Vrbl 2 16.09 Fair CLR 8 2 66% 76.56 0.0
02 00:55 N 4 16.09 Fair CLR 8 2 66% 76.56 0.0
02 00:35 Vrbl 11 16.09 Fair CLR 9 1 58% 8 76.56 0.0
02 00:15 NW 7 16.09 Fair CLR 10 1 54% 9 76.53 0.0
01 23:55 S 6 16.09 Fair CLR 11 2 20.1 9.4 54% 76.53 0.0
01 23:35 SE 2 16.09 Fair CLR 10 3 62% 76.5 0.0
01 23:15 Vrbl 4 16.09 Fair CLR 12 0 44% 76.5 0.0
01 22:55 W 7 16.09 Fair CLR 13 -1 38% 76.5 0.0
01 22:35 SW 6 16.09 Fair CLR 14 -3 31% 76.48 0.0
01 22:15 W 4 16.09 Fair CLR 13 1 44% 76.48 0.0
01 21:55 N 6 16.09 Fair CLR 15 -1 34% 76.48 0.0
01 21:35 SE 6 16.09 Fair CLR 15 -1 34% 76.45 0.0
01 21:15 S 6 16.09 Fair CLR 14 1 41% 76.43 0.0
01 20:55 E 7 16.09 Fair CLR 15 0 36% 76.43 0.0
01 20:35 N 4 16.09 Fair CLR 16 0 34% 76.4 0.0
01 20:15 NW 11 16.09 Fair CLR 18 -4 22% 76.4 0.0
01 19:55 NW 13 16.09 Fair CLR 18 -1 28% 76.38 0.0
01 19:35 NW 17 16.09 Fair CLR 19 -2 24% 76.38 0.0
01 19:15 NW 9 16.09 Fair CLR 20 -3 21% 76.38 0.0
01 18:55 NW 24 16.09 Fair CLR 20 -3 21% 76.38 0.0
01 18:35 NW 22 16.09 Fair CLR 20 -3 21% 76.38 0.0
01 18:15 W 17 16.09 Fair CLR 20 -4 20% 76.4 0.0
01 17:55 NW 17 16.09 Fair CLR 20 -3 20.1 16.3 21% 76.4 0.0
01 17:35 Vrbl 7 16.09 Fair CLR 20 -4 20% 76.4 0.0
01 17:15 W 15 G 26 16.09 Fair CLR 20 -4 20% 76.4 0.0
01 16:55 NW 17 16.09 Fair CLR 20 -3 21% 76.43 0.0
01 16:35 NW 17 G 30 16.09 Fair CLR 20 -3 21% 76.45 0.0
01 16:15 NW 15 16.09 Fair CLR 19 -3 22% 76.45 0.0
01 15:55 NW 11 16.09 Fair CLR 19 -4 21% 76.48 0.0
01 15:35 W 11 16.09 Fair CLR 18 -5 21% 76.5 0.0
01 15:15 Vrbl 4 16.09 Fair CLR 18 -4 22% 76.5 0.0
01 14:55 NW 19 16.09 Fair CLR 19 -3 22% 76.5 0.0
01 14:35 Vrbl 6 16.09 Fair CLR 19 -4 21% 76.5 0.0
01 14:15 E 6 16.09 Fair CLR 19 -4 21% 76.53 0.0
01 13:55 Vrbl 6 16.09 Fair CLR 19 -4 21% 76.53 0.0
01 13:35 NE 7 16.09 Fair CLR 18 -5 21% 76.56 0.0
01 13:15 Vrbl 6 16.09 Fair CLR 17 -5 22% 76.56 0.0
01 12:55 Vrbl 6 16.09 Fair CLR 17 -4 24% 76.56 0.0
01 12:35 NW 11 16.09 Fair CLR 17 -6 20% 76.58 0.0
01 12:15 NE 15 16.09 Fair CLR 17 -6 20% 76.58 0.0
01 11:55 NE 11 16.09 Fair CLR 17 -6 16.8 9 20% 76.61 0.0
01 11:35 E 11 G 26 16.09 Fair CLR 16 -4 25% 76.61 0.0
01 11:15 NE 11 16.09 Fair CLR 16 -5 23% 76.63 0.0
01 10:55 E 11 G 35 16.09 Fair CLR 15 -4 27% 76.66 0.0
01 10:35 Vrbl 7 16.09 Fair CLR 15 -6 23% 76.66 0.0
01 10:15 E 15 G 30 16.09 Fair CLR 14 -4 29% 76.63 0.0
01 09:55 Vrbl 7 16.09 Fair CLR 15 -5 25% 76.66 0.0
01 09:35 E 7 16.09 Fair CLR 14 -4 29% 76.63 0.0
01 09:15 NE 7 16.09 Fair CLR 13 -6 26% 76.63 0.0
01 08:55 SE 11 16.09 Fair CLR 13 -6 26% 76.63 0.0
01 08:35 Vrbl 4 16.09 Fair CLR 12 -7 26% 76.63 0.0
01 08:15 SE 13 16.09 Fair CLR 12 -4 33% 76.61 0.0
01 07:55 E 13 G 26 16.09 Fair CLR 12 -6 28% 76.61 0.0
01 07:35 E 20 16.09 Fair CLR 10 -4 37% 8 76.58 0.0
01 07:15 E 22 16.09 Fair CLR 9 -5 37% 6 76.56 0.0
01 06:55 E 22 16.09 Fair CLR 9 -4 40% 6 76.56 0.0
01 06:35 Vrbl 7 16.09 Fair CLR 10 -5 35% 9 76.56 0.0
01 06:15 NE 17 G 28 16.09 Fair CLR 10 -5 35% 8 76.53 0.0
01 05:55 N 15 16.09 Fair CLR 10 -5 12.6 8.4 35% 8 76.5 0.0
01 05:35 Vrbl 6 16.09 Fair CLR 10 -4 37% 76.5 0.0
01 05:15 Vrbl 9 16.09 Fair CLR 10 -4 37% 9 76.5 0.0
01 04:55 Vrbl 2 16.09 Fair CLR 10 -3 40% 76.5 0.0
01 04:35 SW 7 16.09 Fair CLR 10 -3 40% 9 76.5 0.0
01 04:15 SE 7 16.09 Fair CLR 11 -3 38% 76.5 0.0
01 03:55 SW 9 16.09 Fair CLR 10 -3 40% 9 76.5 0.0
01 03:35 SW 11 16.09 Fair CLR 11 -3 38% 76.48 0.0
01 03:15 SW 11 16.09 Partly Cloudy SCT110 11 -2 41% 76.5 0.0
01 02:55 Vrbl 6 16.09 Mostly Cloudy BKN110 11 -2 41% 76.5 0.0
01 02:35 Vrbl 7 16.09 Mostly Cloudy BKN110 12 -3 35% 76.5 0.0
01 02:15 SW 9 16.09 Overcast OVC110 11 -2 41% 76.5 0.0
01 01:55 Vrbl 6 16.09 Mostly Cloudy BKN110 11 -2 41% 76.5 0.0
01 01:35 Vrbl 6 16.09 Mostly Cloudy BKN110 11 -2 41% 76.48 0.0
01 01:15 N 11 16.09 Mostly Cloudy BKN100 12 -3 35% 76.48 0.0
01 00:55 NE 15 G 28 16.09 Mostly Cloudy BKN100 12 -3 35% 76.45 0.0
01 00:35 Vrbl 9 16.09 Mostly Cloudy BKN100 12 -3 35% 76.45 0.0
01 00:15 Vrbl 4 16.09 Overcast OVC100 12 -2 38% 76.45 0.0
30 23:55 Vrbl 7 16.09 Overcast OVC100 12 -2 17.7 11.6 38% 76.43 0.0
30 23:35 E 17 16.09 Overcast OVC100 12 -2 38% 76.43 0.0
30 23:15 E 26 G 37 16.09 Overcast OVC100 12 -2 38% 76.4 0.0
30 22:55 E 19 G 31 16.09 Overcast OVC110 12 -1 41% 76.4 0.0
30 22:35 E 17 16.09 Overcast OVC110 12 -1 41% 76.4 0.0
30 22:15 E 24 16.09 Partly Cloudy SCT110 12 -1 41% 76.4 0.0
30 21:55 E 22 16.09 Fair CLR 13 -2 36% 76.38 0.0
30 21:35 E 30 G 35 16.09 Fair CLR 13 -2 36% 76.35 0.0
30 21:15 E 26 16.09 Fair CLR 13 -2 36% 76.35 0.0
30 20:55 E 24 16.09 Fair CLR 13 -1 38% 76.33 0.0
Date Time (mdt) Wind (kph) Vis. (km) Weather Sky Cond. Air Dwpt Max. Min. Relative Humidity Wind Chill (°C) Heat Index (°C) altimeter (cm) sea level (mb) 1 hr 3 hr 6 hr
6 hour
Temperature (ºC) Pressure Precipitation (cm)